sensor_id;sensor_type;location;lat;lon;timestamp;P1;durP1;ratioP1;P2;durP2;ratioP2
50309;SDS011;36207;51.850;21.698;2023-12-20T00:01:35;17.10;;;10.40;;
50309;SDS011;36207;51.850;21.698;2023-12-20T00:04:02;16.40;;;10.20;;
50309;SDS011;36207;51.850;21.698;2023-12-20T00:06:29;16.20;;;10.10;;
50309;SDS011;36207;51.850;21.698;2023-12-20T00:08:55;20.40;;;10.40;;
50309;SDS011;36207;51.850;21.698;2023-12-20T00:11:21;16.30;;;10.00;;
50309;SDS011;36207;51.850;21.698;2023-12-20T00:13:47;14.90;;;9.00;;
50309;SDS011;36207;51.850;21.698;2023-12-20T00:16:14;16.90;;;9.90;;
50309;SDS011;36207;51.850;21.698;2023-12-20T00:18:39;15.80;;;9.60;;
50309;SDS011;36207;51.850;21.698;2023-12-20T00:21:05;16.00;;;10.20;;
50309;SDS011;36207;51.850;21.698;2023-12-20T00:23:31;17.10;;;10.30;;
50309;SDS011;36207;51.850;21.698;2023-12-20T00:25:57;17.10;;;10.00;;
50309;SDS011;36207;51.850;21.698;2023-12-20T00:28:23;14.30;;;9.10;;
50309;SDS011;36207;51.850;21.698;2023-12-20T00:30:49;15.10;;;9.50;;
50309;SDS011;36207;51.850;21.698;2023-12-20T00:33:15;14.90;;;9.60;;
50309;SDS011;36207;51.850;21.698;2023-12-20T00:35:41;18.70;;;10.10;;
50309;SDS011;36207;51.850;21.698;2023-12-20T00:38:07;15.20;;;9.60;;
50309;SDS011;36207;51.850;21.698;2023-12-20T00:40:35;17.40;;;10.30;;
50309;SDS011;36207;51.850;21.698;2023-12-20T00:43:01;14.80;;;9.80;;
50309;SDS011;36207;51.850;21.698;2023-12-20T00:45:27;14.60;;;8.80;;
50309;SDS011;36207;51.850;21.698;2023-12-20T00:47:52;14.50;;;9.60;;
50309;SDS011;36207;51.850;21.698;2023-12-20T00:50:18;15.90;;;10.30;;
50309;SDS011;36207;51.850;21.698;2023-12-20T00:52:44;17.30;;;10.00;;
50309;SDS011;36207;51.850;21.698;2023-12-20T00:55:10;15.40;;;9.40;;
50309;SDS011;36207;51.850;21.698;2023-12-20T00:57:36;13.90;;;9.00;;
50309;SDS011;36207;51.850;21.698;2023-12-20T01:00:02;15.10;;;9.60;;
50309;SDS011;36207;51.850;21.698;2023-12-20T01:02:28;16.20;;;10.20;;
50309;SDS011;36207;51.850;21.698;2023-12-20T01:04:54;17.80;;;10.40;;
50309;SDS011;36207;51.850;21.698;2023-12-20T01:07:21;15.10;;;9.60;;
50309;SDS011;36207;51.850;21.698;2023-12-20T01:09:47;16.20;;;10.60;;
50309;SDS011;36207;51.850;21.698;2023-12-20T01:12:12;15.30;;;9.40;;
50309;SDS011;36207;51.850;21.698;2023-12-20T01:14:39;15.70;;;9.90;;
50309;SDS011;36207;51.850;21.698;2023-12-20T01:17:05;16.20;;;10.60;;
50309;SDS011;36207;51.850;21.698;2023-12-20T01:19:31;16.80;;;10.50;;
50309;SDS011;36207;51.850;21.698;2023-12-20T01:21:57;17.10;;;10.50;;
50309;SDS011;36207;51.850;21.698;2023-12-20T01:24:23;16.50;;;10.00;;
50309;SDS011;36207;51.850;21.698;2023-12-20T01:26:49;17.10;;;10.60;;
50309;SDS011;36207;51.850;21.698;2023-12-20T01:29:15;16.50;;;10.30;;
50309;SDS011;36207;51.850;21.698;2023-12-20T01:31:41;18.00;;;10.50;;
50309;SDS011;36207;51.850;21.698;2023-12-20T01:34:07;15.20;;;10.30;;
50309;SDS011;36207;51.850;21.698;2023-12-20T01:36:33;16.80;;;10.30;;
50309;SDS011;36207;51.850;21.698;2023-12-20T01:38:59;16.90;;;10.30;;
50309;SDS011;36207;51.850;21.698;2023-12-20T01:41:25;18.80;;;11.00;;
50309;SDS011;36207;51.850;21.698;2023-12-20T01:43:51;16.20;;;10.10;;
50309;SDS011;36207;51.850;21.698;2023-12-20T01:46:19;15.90;;;10.20;;
50309;SDS011;36207;51.850;21.698;2023-12-20T01:48:47;16.60;;;10.10;;
50309;SDS011;36207;51.850;21.698;2023-12-20T01:51:15;15.70;;;9.90;;
50309;SDS011;36207;51.850;21.698;2023-12-20T01:53:41;15.60;;;10.40;;
50309;SDS011;36207;51.850;21.698;2023-12-20T01:56:08;15.80;;;9.90;;
50309;SDS011;36207;51.850;21.698;2023-12-20T01:58:34;16.80;;;10.50;;
50309;SDS011;36207;51.850;21.698;2023-12-20T02:01:01;16.60;;;10.20;;
50309;SDS011;36207;51.850;21.698;2023-12-20T02:03:26;17.00;;;10.40;;
50309;SDS011;36207;51.850;21.698;2023-12-20T02:05:52;16.50;;;10.30;;
50309;SDS011;36207;51.850;21.698;2023-12-20T02:08:18;17.40;;;10.40;;
50309;SDS011;36207;51.850;21.698;2023-12-20T02:10:44;16.20;;;10.70;;
50309;SDS011;36207;51.850;21.698;2023-12-20T02:13:10;15.30;;;10.50;;
50309;SDS011;36207;51.850;21.698;2023-12-20T02:15:36;16.80;;;10.30;;
50309;SDS011;36207;51.850;21.698;2023-12-20T02:18:03;17.60;;;10.10;;
50309;SDS011;36207;51.850;21.698;2023-12-20T02:20:29;15.70;;;10.40;;
50309;SDS011;36207;51.850;21.698;2023-12-20T02:22:55;17.00;;;10.10;;
50309;SDS011;36207;51.850;21.698;2023-12-20T02:25:21;16.60;;;10.40;;
50309;SDS011;36207;51.850;21.698;2023-12-20T02:27:48;18.50;;;10.70;;
50309;SDS011;36207;51.850;21.698;2023-12-20T02:30:15;16.90;;;10.70;;
50309;SDS011;36207;51.850;21.698;2023-12-20T02:32:41;16.30;;;10.50;;
50309;SDS011;36207;51.850;21.698;2023-12-20T02:35:07;15.40;;;10.30;;
50309;SDS011;36207;51.850;21.698;2023-12-20T02:37:33;17.60;;;10.80;;
50309;SDS011;36207;51.850;21.698;2023-12-20T02:39:59;16.60;;;10.60;;
50309;SDS011;36207;51.850;21.698;2023-12-20T02:42:25;16.00;;;10.50;;
50309;SDS011;36207;51.850;21.698;2023-12-20T02:44:51;16.70;;;10.80;;
50309;SDS011;36207;51.850;21.698;2023-12-20T02:47:17;15.60;;;10.70;;
50309;SDS011;36207;51.850;21.698;2023-12-20T02:49:43;16.70;;;11.20;;
50309;SDS011;36207;51.850;21.698;2023-12-20T02:52:09;15.70;;;9.90;;
50309;SDS011;36207;51.850;21.698;2023-12-20T02:54:35;15.00;;;10.40;;
50309;SDS011;36207;51.850;21.698;2023-12-20T02:57:01;18.20;;;10.90;;
50309;SDS011;36207;51.850;21.698;2023-12-20T02:59:27;16.20;;;10.20;;
50309;SDS011;36207;51.850;21.698;2023-12-20T03:01:53;17.20;;;11.10;;
50309;SDS011;36207;51.850;21.698;2023-12-20T03:04:19;17.90;;;10.70;;
50309;SDS011;36207;51.850;21.698;2023-12-20T03:06:44;15.60;;;10.00;;
50309;SDS011;36207;51.850;21.698;2023-12-20T03:09:10;17.60;;;10.70;;
50309;SDS011;36207;51.850;21.698;2023-12-20T03:11:36;18.90;;;11.20;;
50309;SDS011;36207;51.850;21.698;2023-12-20T03:14:02;18.00;;;11.00;;
50309;SDS011;36207;51.850;21.698;2023-12-20T03:16:28;17.30;;;10.90;;
50309;SDS011;36207;51.850;21.698;2023-12-20T03:18:54;15.90;;;10.20;;
50309;SDS011;36207;51.850;21.698;2023-12-20T03:21:20;15.00;;;9.90;;
50309;SDS011;36207;51.850;21.698;2023-12-20T03:23:46;16.50;;;9.40;;
50309;SDS011;36207;51.850;21.698;2023-12-20T03:26:12;15.70;;;10.10;;
50309;SDS011;36207;51.850;21.698;2023-12-20T03:28:38;14.40;;;9.80;;
50309;SDS011;36207;51.850;21.698;2023-12-20T03:31:04;16.40;;;10.60;;
50309;SDS011;36207;51.850;21.698;2023-12-20T03:33:30;15.30;;;9.70;;
50309;SDS011;36207;51.850;21.698;2023-12-20T03:35:56;18.20;;;10.00;;
50309;SDS011;36207;51.850;21.698;2023-12-20T03:38:22;15.40;;;10.30;;
50309;SDS011;36207;51.850;21.698;2023-12-20T03:40:49;17.70;;;10.30;;
50309;SDS011;36207;51.850;21.698;2023-12-20T03:43:16;15.70;;;10.20;;
50309;SDS011;36207;51.850;21.698;2023-12-20T03:45:42;15.80;;;9.60;;
50309;SDS011;36207;51.850;21.698;2023-12-20T03:48:09;13.90;;;9.40;;
50309;SDS011;36207;51.850;21.698;2023-12-20T03:50:35;14.10;;;9.70;;
50309;SDS011;36207;51.850;21.698;2023-12-20T03:53:01;14.80;;;10.20;;
50309;SDS011;36207;51.850;21.698;2023-12-20T03:55:27;16.60;;;10.40;;
50309;SDS011;36207;51.850;21.698;2023-12-20T03:57:53;15.40;;;10.00;;
50309;SDS011;36207;51.850;21.698;2023-12-20T04:00:19;14.90;;;9.60;;
50309;SDS011;36207;51.850;21.698;2023-12-20T04:02:45;14.10;;;9.70;;
50309;SDS011;36207;51.850;21.698;2023-12-20T04:05:11;14.00;;;8.70;;
50309;SDS011;36207;51.850;21.698;2023-12-20T04:07:37;14.30;;;9.40;;
50309;SDS011;36207;51.850;21.698;2023-12-20T04:10:04;14.70;;;8.90;;
50309;SDS011;36207;51.850;21.698;2023-12-20T04:12:31;12.80;;;8.80;;
50309;SDS011;36207;51.850;21.698;2023-12-20T04:14:57;14.90;;;9.80;;
50309;SDS011;36207;51.850;21.698;2023-12-20T04:17:23;14.70;;;10.20;;
50309;SDS011;36207;51.850;21.698;2023-12-20T04:19:49;16.50;;;10.20;;
50309;SDS011;36207;51.850;21.698;2023-12-20T04:22:16;16.80;;;9.70;;
50309;SDS011;36207;51.850;21.698;2023-12-20T04:24:43;15.30;;;10.20;;
50309;SDS011;36207;51.850;21.698;2023-12-20T04:27:09;15.20;;;10.40;;
50309;SDS011;36207;51.850;21.698;2023-12-20T04:29:35;14.70;;;10.60;;
50309;SDS011;36207;51.850;21.698;2023-12-20T04:32:01;14.70;;;10.10;;
50309;SDS011;36207;51.850;21.698;2023-12-20T04:34:27;13.90;;;10.20;;
50309;SDS011;36207;51.850;21.698;2023-12-20T04:36:53;12.70;;;9.30;;
50309;SDS011;36207;51.850;21.698;2023-12-20T04:39:19;14.70;;;10.40;;
50309;SDS011;36207;51.850;21.698;2023-12-20T04:41:45;14.40;;;10.00;;
50309;SDS011;36207;51.850;21.698;2023-12-20T04:44:13;13.40;;;9.40;;
50309;SDS011;36207;51.850;21.698;2023-12-20T04:46:39;16.20;;;10.10;;
50309;SDS011;36207;51.850;21.698;2023-12-20T04:49:05;14.30;;;9.80;;
50309;SDS011;36207;51.850;21.698;2023-12-20T04:51:35;14.90;;;9.90;;
50309;SDS011;36207;51.850;21.698;2023-12-20T04:54:01;15.10;;;9.60;;
50309;SDS011;36207;51.850;21.698;2023-12-20T04:56:27;14.40;;;9.60;;
50309;SDS011;36207;51.850;21.698;2023-12-20T04:58:54;14.50;;;9.20;;
50309;SDS011;36207;51.850;21.698;2023-12-20T05:01:20;14.50;;;8.80;;
50309;SDS011;36207;51.850;21.698;2023-12-20T05:03:47;13.30;;;9.20;;
50309;SDS011;36207;51.850;21.698;2023-12-20T05:06:13;13.80;;;9.30;;
50309;SDS011;36207;51.850;21.698;2023-12-20T05:08:39;15.10;;;9.40;;
50309;SDS011;36207;51.850;21.698;2023-12-20T05:11:04;12.10;;;8.50;;
50309;SDS011;36207;51.850;21.698;2023-12-20T05:13:30;14.10;;;9.10;;
50309;SDS011;36207;51.850;21.698;2023-12-20T05:15:56;12.50;;;8.30;;
50309;SDS011;36207;51.850;21.698;2023-12-20T05:18:22;13.40;;;9.00;;
50309;SDS011;36207;51.850;21.698;2023-12-20T05:20:49;13.10;;;8.80;;
50309;SDS011;36207;51.850;21.698;2023-12-20T05:23:16;13.40;;;9.20;;
50309;SDS011;36207;51.850;21.698;2023-12-20T05:25:42;12.80;;;7.70;;
50309;SDS011;36207;51.850;21.698;2023-12-20T05:28:09;13.00;;;8.40;;
50309;SDS011;36207;51.850;21.698;2023-12-20T05:30:36;11.90;;;8.40;;
50309;SDS011;36207;51.850;21.698;2023-12-20T05:33:02;13.40;;;8.40;;
50309;SDS011;36207;51.850;21.698;2023-12-20T05:35:29;12.30;;;8.30;;
50309;SDS011;36207;51.850;21.698;2023-12-20T05:37:55;12.20;;;8.20;;
50309;SDS011;36207;51.850;21.698;2023-12-20T05:40:21;12.40;;;8.20;;
50309;SDS011;36207;51.850;21.698;2023-12-20T05:42:47;11.40;;;7.60;;
50309;SDS011;36207;51.850;21.698;2023-12-20T05:45:14;11.10;;;7.40;;
50309;SDS011;36207;51.850;21.698;2023-12-20T05:47:40;12.10;;;7.90;;
50309;SDS011;36207;51.850;21.698;2023-12-20T05:50:06;11.20;;;7.70;;
50309;SDS011;36207;51.850;21.698;2023-12-20T05:52:33;13.00;;;8.70;;
50309;SDS011;36207;51.850;21.698;2023-12-20T05:54:58;12.70;;;8.40;;
50309;SDS011;36207;51.850;21.698;2023-12-20T05:57:27;13.70;;;8.90;;
50309;SDS011;36207;51.850;21.698;2023-12-20T05:59:53;12.90;;;8.30;;
50309;SDS011;36207;51.850;21.698;2023-12-20T06:02:19;12.20;;;8.20;;
50309;SDS011;36207;51.850;21.698;2023-12-20T06:04:45;10.90;;;7.80;;
50309;SDS011;36207;51.850;21.698;2023-12-20T06:07:12;12.30;;;8.10;;
50309;SDS011;36207;51.850;21.698;2023-12-20T06:09:38;10.30;;;7.70;;
50309;SDS011;36207;51.850;21.698;2023-12-20T06:12:05;12.70;;;7.70;;
50309;SDS011;36207;51.850;21.698;2023-12-20T06:14:31;14.70;;;7.80;;
50309;SDS011;36207;51.850;21.698;2023-12-20T06:16:57;13.10;;;8.00;;
50309;SDS011;36207;51.850;21.698;2023-12-20T06:19:23;11.90;;;7.60;;
50309;SDS011;36207;51.850;21.698;2023-12-20T06:21:49;11.50;;;7.40;;
50309;SDS011;36207;51.850;21.698;2023-12-20T06:24:15;11.50;;;7.80;;
50309;SDS011;36207;51.850;21.698;2023-12-20T06:26:41;13.00;;;7.90;;
50309;SDS011;36207;51.850;21.698;2023-12-20T06:29:06;11.30;;;7.70;;
50309;SDS011;36207;51.850;21.698;2023-12-20T06:31:32;12.40;;;8.20;;
50309;SDS011;36207;51.850;21.698;2023-12-20T06:33:58;13.00;;;8.20;;
50309;SDS011;36207;51.850;21.698;2023-12-20T06:36:28;11.80;;;7.90;;
50309;SDS011;36207;51.850;21.698;2023-12-20T06:38:54;12.90;;;8.60;;
50309;SDS011;36207;51.850;21.698;2023-12-20T06:41:20;12.90;;;8.80;;
50309;SDS011;36207;51.850;21.698;2023-12-20T06:43:46;13.10;;;9.00;;
50309;SDS011;36207;51.850;21.698;2023-12-20T06:46:12;12.00;;;8.60;;
50309;SDS011;36207;51.850;21.698;2023-12-20T06:48:39;14.90;;;9.10;;
50309;SDS011;36207;51.850;21.698;2023-12-20T06:51:06;13.10;;;9.20;;
50309;SDS011;36207;51.850;21.698;2023-12-20T06:53:32;13.60;;;9.20;;
50309;SDS011;36207;51.850;21.698;2023-12-20T06:55:58;13.10;;;9.20;;
50309;SDS011;36207;51.850;21.698;2023-12-20T06:58:24;12.30;;;8.40;;
50309;SDS011;36207;51.850;21.698;2023-12-20T07:00:50;11.00;;;8.10;;
50309;SDS011;36207;51.850;21.698;2023-12-20T07:03:17;10.90;;;8.10;;
50309;SDS011;36207;51.850;21.698;2023-12-20T07:05:43;13.10;;;9.30;;
50309;SDS011;36207;51.850;21.698;2023-12-20T07:08:09;13.30;;;9.30;;
50309;SDS011;36207;51.850;21.698;2023-12-20T07:10:36;12.80;;;8.90;;
50309;SDS011;36207;51.850;21.698;2023-12-20T07:13:02;13.70;;;9.40;;
50309;SDS011;36207;51.850;21.698;2023-12-20T07:15:28;13.20;;;8.40;;
50309;SDS011;36207;51.850;21.698;2023-12-20T07:17:55;13.70;;;8.50;;
50309;SDS011;36207;51.850;21.698;2023-12-20T07:20:21;12.10;;;9.00;;
50309;SDS011;36207;51.850;21.698;2023-12-20T07:22:47;12.00;;;8.60;;
50309;SDS011;36207;51.850;21.698;2023-12-20T07:25:13;11.60;;;8.30;;
50309;SDS011;36207;51.850;21.698;2023-12-20T07:27:39;12.10;;;8.20;;
50309;SDS011;36207;51.850;21.698;2023-12-20T07:30:05;12.50;;;8.40;;
50309;SDS011;36207;51.850;21.698;2023-12-20T07:32:31;17.30;;;11.40;;
50309;SDS011;36207;51.850;21.698;2023-12-20T07:34:57;14.00;;;9.20;;
50309;SDS011;36207;51.850;21.698;2023-12-20T07:37:23;14.70;;;9.50;;
50309;SDS011;36207;51.850;21.698;2023-12-20T07:39:49;12.40;;;8.90;;
50309;SDS011;36207;51.850;21.698;2023-12-20T07:42:15;12.20;;;8.80;;
50309;SDS011;36207;51.850;21.698;2023-12-20T07:44:41;13.00;;;8.40;;
50309;SDS011;36207;51.850;21.698;2023-12-20T07:47:07;13.30;;;8.90;;
50309;SDS011;36207;51.850;21.698;2023-12-20T07:49:33;13.50;;;8.90;;
50309;SDS011;36207;51.850;21.698;2023-12-20T07:51:59;12.20;;;8.00;;
50309;SDS011;36207;51.850;21.698;2023-12-20T07:54:25;12.40;;;8.50;;
50309;SDS011;36207;51.850;21.698;2023-12-20T07:56:51;11.60;;;8.30;;
50309;SDS011;36207;51.850;21.698;2023-12-20T07:59:17;11.70;;;8.30;;
50309;SDS011;36207;51.850;21.698;2023-12-20T08:01:43;10.70;;;7.30;;
50309;SDS011;36207;51.850;21.698;2023-12-20T08:04:09;12.50;;;7.70;;
50309;SDS011;36207;51.850;21.698;2023-12-20T08:06:35;11.00;;;7.30;;
50309;SDS011;36207;51.850;21.698;2023-12-20T08:09:01;9.90;;;6.70;;
50309;SDS011;36207;51.850;21.698;2023-12-20T08:11:27;9.80;;;6.80;;
50309;SDS011;36207;51.850;21.698;2023-12-20T08:13:55;9.60;;;6.60;;
50309;SDS011;36207;51.850;21.698;2023-12-20T08:16:20;9.50;;;6.80;;
50309;SDS011;36207;51.850;21.698;2023-12-20T08:18:47;9.10;;;6.40;;
50309;SDS011;36207;51.850;21.698;2023-12-20T08:21:13;9.10;;;6.10;;
50309;SDS011;36207;51.850;21.698;2023-12-20T08:23:39;9.80;;;6.00;;
50309;SDS011;36207;51.850;21.698;2023-12-20T08:26:05;11.10;;;6.80;;
50309;SDS011;36207;51.850;21.698;2023-12-20T08:28:34;11.40;;;6.40;;
50309;SDS011;36207;51.850;21.698;2023-12-20T08:31:03;12.20;;;6.70;;
50309;SDS011;36207;51.850;21.698;2023-12-20T08:33:29;9.60;;;6.10;;
50309;SDS011;36207;51.850;21.698;2023-12-20T08:35:54;8.80;;;5.80;;
50309;SDS011;36207;51.850;21.698;2023-12-20T08:38:20;9.80;;;6.20;;
50309;SDS011;36207;51.850;21.698;2023-12-20T08:40:46;9.40;;;6.20;;
50309;SDS011;36207;51.850;21.698;2023-12-20T08:43:12;10.10;;;6.80;;
50309;SDS011;36207;51.850;21.698;2023-12-20T08:45:38;10.90;;;6.30;;
50309;SDS011;36207;51.850;21.698;2023-12-20T08:48:04;9.00;;;6.00;;
50309;SDS011;36207;51.850;21.698;2023-12-20T08:50:31;11.00;;;6.40;;
50309;SDS011;36207;51.850;21.698;2023-12-20T08:52:57;9.80;;;5.90;;
50309;SDS011;36207;51.850;21.698;2023-12-20T08:55:23;9.40;;;6.20;;
50309;SDS011;36207;51.850;21.698;2023-12-20T08:57:49;8.80;;;5.80;;
50309;SDS011;36207;51.850;21.698;2023-12-20T09:00:16;9.10;;;5.80;;
50309;SDS011;36207;51.850;21.698;2023-12-20T09:02:43;9.90;;;6.00;;
50309;SDS011;36207;51.850;21.698;2023-12-20T09:05:09;10.00;;;5.70;;
50309;SDS011;36207;51.850;21.698;2023-12-20T09:07:34;9.70;;;6.20;;
50309;SDS011;36207;51.850;21.698;2023-12-20T09:10:00;8.60;;;5.70;;
50309;SDS011;36207;51.850;21.698;2023-12-20T09:12:27;9.40;;;6.00;;
50309;SDS011;36207;51.850;21.698;2023-12-20T09:14:53;9.00;;;6.00;;
50309;SDS011;36207;51.850;21.698;2023-12-20T09:17:19;9.10;;;6.00;;
50309;SDS011;36207;51.850;21.698;2023-12-20T09:19:47;8.90;;;6.00;;
50309;SDS011;36207;51.850;21.698;2023-12-20T09:22:13;10.80;;;6.20;;
50309;SDS011;36207;51.850;21.698;2023-12-20T09:24:40;9.10;;;5.90;;
50309;SDS011;36207;51.850;21.698;2023-12-20T09:27:06;9.20;;;5.50;;
50309;SDS011;36207;51.850;21.698;2023-12-20T09:29:32;8.60;;;5.70;;
50309;SDS011;36207;51.850;21.698;2023-12-20T09:31:58;9.10;;;5.20;;
50309;SDS011;36207;51.850;21.698;2023-12-20T09:34:24;7.50;;;5.10;;
50309;SDS011;36207;51.850;21.698;2023-12-20T09:36:51;7.60;;;4.70;;
50309;SDS011;36207;51.850;21.698;2023-12-20T09:39:18;8.40;;;5.20;;
50309;SDS011;36207;51.850;21.698;2023-12-20T09:41:49;8.30;;;4.50;;
50309;SDS011;36207;51.850;21.698;2023-12-20T09:44:25;7.60;;;4.60;;
50309;SDS011;36207;51.850;21.698;2023-12-20T09:46:51;6.40;;;4.50;;
50309;SDS011;36207;51.850;21.698;2023-12-20T09:49:20;7.40;;;4.90;;
50309;SDS011;36207;51.850;21.698;2023-12-20T09:51:47;7.90;;;5.10;;
50309;SDS011;36207;51.850;21.698;2023-12-20T09:54:17;7.20;;;4.80;;
50309;SDS011;36207;51.850;21.698;2023-12-20T09:56:44;9.00;;;4.80;;
50309;SDS011;36207;51.850;21.698;2023-12-20T09:59:10;7.30;;;4.80;;
50309;SDS011;36207;51.850;21.698;2023-12-20T10:01:37;7.30;;;4.80;;
50309;SDS011;36207;51.850;21.698;2023-12-20T10:04:05;7.80;;;5.00;;
50309;SDS011;36207;51.850;21.698;2023-12-20T10:06:39;7.30;;;4.70;;
50309;SDS011;36207;51.850;21.698;2023-12-20T10:09:06;6.80;;;4.90;;
50309;SDS011;36207;51.850;21.698;2023-12-20T10:11:32;6.10;;;4.00;;
50309;SDS011;36207;51.850;21.698;2023-12-20T10:14:00;7.70;;;4.20;;
50309;SDS011;36207;51.850;21.698;2023-12-20T10:16:27;7.30;;;4.60;;
50309;SDS011;36207;51.850;21.698;2023-12-20T10:18:54;6.50;;;3.80;;
50309;SDS011;36207;51.850;21.698;2023-12-20T10:21:21;6.10;;;3.70;;
50309;SDS011;36207;51.850;21.698;2023-12-20T10:23:48;6.60;;;3.90;;
50309;SDS011;36207;51.850;21.698;2023-12-20T10:26:24;7.80;;;4.40;;
50309;SDS011;36207;51.850;21.698;2023-12-20T10:28:56;7.20;;;4.40;;
50309;SDS011;36207;51.850;21.698;2023-12-20T10:31:34;7.90;;;5.00;;
50309;SDS011;36207;51.850;21.698;2023-12-20T10:34:01;8.00;;;4.40;;
50309;SDS011;36207;51.850;21.698;2023-12-20T10:36:32;7.50;;;4.30;;
50309;SDS011;36207;51.850;21.698;2023-12-20T10:38:58;7.80;;;4.60;;
50309;SDS011;36207;51.850;21.698;2023-12-20T10:41:29;6.40;;;4.40;;
50309;SDS011;36207;51.850;21.698;2023-12-20T10:43:58;7.00;;;4.50;;
50309;SDS011;36207;51.850;21.698;2023-12-20T10:46:28;7.00;;;4.40;;
50309;SDS011;36207;51.850;21.698;2023-12-20T10:48:58;7.20;;;4.40;;
50309;SDS011;36207;51.850;21.698;2023-12-20T10:51:27;7.90;;;4.70;;
50309;SDS011;36207;51.850;21.698;2023-12-20T10:53:55;8.00;;;4.60;;
50309;SDS011;36207;51.850;21.698;2023-12-20T10:56:22;5.90;;;4.20;;
50309;SDS011;36207;51.850;21.698;2023-12-20T10:58:51;8.10;;;4.30;;
50309;SDS011;36207;51.850;21.698;2023-12-20T11:01:18;6.60;;;4.30;;
50309;SDS011;36207;51.850;21.698;2023-12-20T11:03:54;6.50;;;4.50;;
50309;SDS011;36207;51.850;21.698;2023-12-20T11:06:33;6.60;;;4.10;;
50309;SDS011;36207;51.850;21.698;2023-12-20T11:09:25;6.30;;;4.40;;
50309;SDS011;36207;51.850;21.698;2023-12-20T11:14:40;6.30;;;4.30;;
50309;SDS011;36207;51.850;21.698;2023-12-20T11:17:10;6.80;;;4.30;;
50309;SDS011;36207;51.850;21.698;2023-12-20T11:22:21;7.90;;;4.70;;
50309;SDS011;36207;51.850;21.698;2023-12-20T11:24:48;7.30;;;4.50;;
50309;SDS011;36207;51.850;21.698;2023-12-20T11:27:15;6.70;;;4.50;;
50309;SDS011;36207;51.850;21.698;2023-12-20T11:29:41;5.90;;;4.20;;
50309;SDS011;36207;51.850;21.698;2023-12-20T11:34:58;9.40;;;4.40;;
50309;SDS011;36207;51.850;21.698;2023-12-20T11:37:32;7.20;;;4.40;;
50309;SDS011;36207;51.850;21.698;2023-12-20T11:40:22;8.30;;;4.50;;
50309;SDS011;36207;51.850;21.698;2023-12-20T11:42:49;6.50;;;4.30;;
50309;SDS011;36207;51.850;21.698;2023-12-20T11:45:19;6.40;;;4.20;;
50309;SDS011;36207;51.850;21.698;2023-12-20T11:47:48;6.20;;;4.20;;
50309;SDS011;36207;51.850;21.698;2023-12-20T11:50:18;7.70;;;4.90;;
50309;SDS011;36207;51.850;21.698;2023-12-20T11:52:44;6.90;;;4.70;;
50309;SDS011;36207;51.850;21.698;2023-12-20T11:55:10;6.70;;;4.60;;
50309;SDS011;36207;51.850;21.698;2023-12-20T11:57:37;7.20;;;4.60;;
50309;SDS011;36207;51.850;21.698;2023-12-20T12:00:03;7.70;;;4.50;;
50309;SDS011;36207;51.850;21.698;2023-12-20T12:02:30;6.40;;;4.30;;
50309;SDS011;36207;51.850;21.698;2023-12-20T12:04:56;7.20;;;4.60;;
50309;SDS011;36207;51.850;21.698;2023-12-20T12:07:24;7.00;;;4.50;;
50309;SDS011;36207;51.850;21.698;2023-12-20T12:09:51;6.50;;;4.20;;
50309;SDS011;36207;51.850;21.698;2023-12-20T12:12:17;7.10;;;4.60;;
50309;SDS011;36207;51.850;21.698;2023-12-20T12:14:45;7.70;;;4.80;;
50309;SDS011;36207;51.850;21.698;2023-12-20T12:17:11;7.00;;;4.70;;
50309;SDS011;36207;51.850;21.698;2023-12-20T12:19:41;7.10;;;4.60;;
50309;SDS011;36207;51.850;21.698;2023-12-20T12:22:08;7.50;;;4.50;;
50309;SDS011;36207;51.850;21.698;2023-12-20T12:24:42;7.10;;;4.50;;
50309;SDS011;36207;51.850;21.698;2023-12-20T12:27:10;8.30;;;4.90;;
50309;SDS011;36207;51.850;21.698;2023-12-20T12:29:37;6.20;;;4.40;;
50309;SDS011;36207;51.850;21.698;2023-12-20T12:32:07;6.20;;;4.30;;
50309;SDS011;36207;51.850;21.698;2023-12-20T12:34:34;6.60;;;4.40;;
50309;SDS011;36207;51.850;21.698;2023-12-20T12:37:02;6.60;;;4.40;;
50309;SDS011;36207;51.850;21.698;2023-12-20T12:39:29;6.70;;;4.30;;
50309;SDS011;36207;51.850;21.698;2023-12-20T12:41:56;5.40;;;3.80;;
50309;SDS011;36207;51.850;21.698;2023-12-20T12:44:22;6.70;;;3.90;;
50309;SDS011;36207;51.850;21.698;2023-12-20T12:46:52;6.30;;;4.20;;
50309;SDS011;36207;51.850;21.698;2023-12-20T12:49:19;6.80;;;4.50;;
50309;SDS011;36207;51.850;21.698;2023-12-20T12:51:47;7.30;;;4.30;;
50309;SDS011;36207;51.850;21.698;2023-12-20T12:54:13;7.50;;;4.10;;
50309;SDS011;36207;51.850;21.698;2023-12-20T12:56:41;6.70;;;4.20;;
50309;SDS011;36207;51.850;21.698;2023-12-20T12:59:08;5.80;;;4.10;;
50309;SDS011;36207;51.850;21.698;2023-12-20T13:01:34;7.00;;;4.00;;
50309;SDS011;36207;51.850;21.698;2023-12-20T13:04:00;4.80;;;3.40;;
50309;SDS011;36207;51.850;21.698;2023-12-20T13:06:32;5.70;;;3.80;;
50309;SDS011;36207;51.850;21.698;2023-12-20T13:08:58;8.10;;;4.80;;
50309;SDS011;36207;51.850;21.698;2023-12-20T13:11:24;6.20;;;4.10;;
50309;SDS011;36207;51.850;21.698;2023-12-20T13:13:51;7.40;;;3.90;;
50309;SDS011;36207;51.850;21.698;2023-12-20T13:16:17;5.60;;;3.70;;
50309;SDS011;36207;51.850;21.698;2023-12-20T13:18:43;6.20;;;3.00;;
50309;SDS011;36207;51.850;21.698;2023-12-20T13:21:09;4.80;;;3.00;;
50309;SDS011;36207;51.850;21.698;2023-12-20T13:23:35;4.00;;;2.50;;
50309;SDS011;36207;51.850;21.698;2023-12-20T13:26:01;3.90;;;2.60;;
50309;SDS011;36207;51.850;21.698;2023-12-20T13:28:28;4.40;;;2.90;;
50309;SDS011;36207;51.850;21.698;2023-12-20T13:30:54;3.20;;;2.30;;
50309;SDS011;36207;51.850;21.698;2023-12-20T13:33:20;4.60;;;2.90;;
50309;SDS011;36207;51.850;21.698;2023-12-20T13:35:47;5.50;;;3.20;;
50309;SDS011;36207;51.850;21.698;2023-12-20T13:38:13;5.50;;;3.00;;
50309;SDS011;36207;51.850;21.698;2023-12-20T13:40:39;6.00;;;3.10;;
50309;SDS011;36207;51.850;21.698;2023-12-20T13:43:05;5.40;;;3.00;;
50309;SDS011;36207;51.850;21.698;2023-12-20T13:45:31;3.30;;;2.80;;
50309;SDS011;36207;51.850;21.698;2023-12-20T13:47:58;5.80;;;3.20;;
50309;SDS011;36207;51.850;21.698;2023-12-20T13:50:24;5.20;;;3.40;;
50309;SDS011;36207;51.850;21.698;2023-12-20T13:52:51;5.40;;;3.20;;
50309;SDS011;36207;51.850;21.698;2023-12-20T13:55:17;5.30;;;3.50;;
50309;SDS011;36207;51.850;21.698;2023-12-20T13:57:46;5.30;;;3.40;;
50309;SDS011;36207;51.850;21.698;2023-12-20T14:00:14;5.90;;;3.30;;
50309;SDS011;36207;51.850;21.698;2023-12-20T14:02:41;6.00;;;3.50;;
50309;SDS011;36207;51.850;21.698;2023-12-20T14:05:08;6.90;;;4.10;;
50309;SDS011;36207;51.850;21.698;2023-12-20T14:07:35;6.60;;;3.70;;
50309;SDS011;36207;51.850;21.698;2023-12-20T14:10:01;6.50;;;3.80;;
50309;SDS011;36207;51.850;21.698;2023-12-20T14:12:28;7.00;;;3.50;;
50309;SDS011;36207;51.850;21.698;2023-12-20T14:14:54;6.40;;;4.20;;
50309;SDS011;36207;51.850;21.698;2023-12-20T14:17:21;9.10;;;4.00;;
50309;SDS011;36207;51.850;21.698;2023-12-20T14:19:48;7.30;;;3.90;;
50309;SDS011;36207;51.850;21.698;2023-12-20T14:22:14;8.90;;;4.50;;
50309;SDS011;36207;51.850;21.698;2023-12-20T14:24:42;13.30;;;6.30;;
50309;SDS011;36207;51.850;21.698;2023-12-20T14:27:09;13.90;;;7.10;;
50309;SDS011;36207;51.850;21.698;2023-12-20T14:29:36;10.30;;;5.20;;